Weather at Buffalo Lancaster Regional Airport

Public forecast

Using degrees Fahrenheit for public forecast. Weather courtesy of forecast.io.

Closest aviation weather report (METAR) to Buffalo Lancaster Regional Airport

Closest report is Buffalo Niagara International Airport, 5.4 nm (10.0 km) WNW.

2024/05/29 06:54 (retrieved 1 hour ago)

KBUF 290654Z 24003KT 10SM OVC070 14/12 A2992 RMK AO2 SLP132 T01390122

Closest aviation forecast (TAF) to Buffalo Lancaster Regional Airport

Closest forecast is Buffalo Niagara International Airport, 5.4 nm (10.0 km) WNW.

2024/05/29 06:42 (retrieved 1 hour ago)

TAF KBUF 290539Z 2906/3006 VRB03KT 6SM BR BKN050 FM290900 VRB04KT 5SM BR BKN015 FM291600 01005KT P6SM BKN050 FM292200 34007KT P6SM SCT050